Time;durP1;ratioP1;P1;durP2;ratioP2;P2;SDS_P1;SDS_P2;PMS_P1;PMS_P2;Temp;Humidity;BMP_temperature;BMP_pressure;BME280_temperature;BME280_humidity;BME280_pressure;Samples;Min_cycle;Max_cycle;Signal;HPM_P1;HPM_P2
2021/11/28 00:01:07;;;;;;;20.50;18.40;;;3.90;1.00;5.80;98399.00;;;;4991833;28;20451;-85
2021/11/28 00:03:37;;;;;;;22.33;19.67;;;4.00;1.00;5.90;98367.00;;;;4981328;28;20447;-83
2021/11/28 00:06:08;;;;;;;21.73;19.50;;;4.00;1.00;5.90;98398.00;;;;5012577;28;20474;-82
2021/11/28 00:11:25;;;;;;;20.87;18.90;;;4.00;1.00;5.90;98389.00;;;;5008622;28;20468;-82
2021/11/28 00:14:05;;;;;;;21.53;19.53;;;4.00;1.00;5.90;98399.00;;;;5007167;28;20450;-83
2021/11/28 00:16:34;;;;;;;18.57;16.80;;;4.00;1.00;5.90;98328.00;;;;5020680;28;20497;-83
2021/11/28 00:19:06;;;;;;;21.43;19.37;;;4.20;1.00;5.90;98413.00;;;;5005208;28;20451;-81
2021/11/28 00:21:37;;;;;;;19.77;17.97;;;4.30;1.00;6.00;98302.00;;;;4988130;28;20579;-82
2021/11/28 00:24:06;;;;;;;20.03;18.20;;;4.20;1.00;6.00;98413.00;;;;5005886;28;20498;-81
2021/11/28 00:26:38;;;;;;;19.50;17.53;;;4.20;1.00;6.00;98413.00;;;;4999258;28;20483;-82
2021/11/28 00:29:08;;;;;;;19.93;18.13;;;4.20;1.00;6.00;98407.00;;;;4975649;28;20542;-81
2021/11/28 00:31:39;;;;;;;19.90;18.20;;;4.10;1.00;6.00;98389.00;;;;5000814;28;20527;-83
2021/11/28 00:34:14;;;;;;;19.20;17.40;;;4.10;1.00;6.10;98314.00;;;;5005904;28;20459;-82
2021/11/28 00:36:42;;;;;;;19.20;17.47;;;4.20;1.00;6.10;98387.00;;;;5006975;28;20480;-81
2021/11/28 00:39:11;;;;;;;18.80;17.10;;;4.20;1.00;6.10;98423.00;;;;5011041;28;20467;-86
2021/11/28 00:41:40;;;;;;;16.87;15.27;;;4.20;1.00;6.10;98410.00;;;;4993053;28;20455;-82
2021/11/28 00:44:28;;;;;;;14.93;13.53;;;4.20;1.00;6.00;98416.00;;;;5012248;28;20522;-82
2021/11/28 00:46:58;;;;;;;15.30;13.77;;;4.20;1.00;6.10;98434.00;;;;4981021;28;20529;-82
2021/11/28 00:49:28;;;;;;;14.00;12.70;;;4.20;1.00;6.10;98370.00;;;;5008242;28;20454;-83
2021/11/28 00:51:57;;;;;;;13.97;12.53;;;4.20;1.00;6.00;98412.00;;;;4998107;28;20443;-81
2021/11/28 00:54:29;;;;;;;13.40;12.20;;;4.20;1.00;6.00;98420.00;;;;4991276;28;20797;-84
2021/11/28 00:57:01;;;;;;;13.70;12.50;;;4.20;1.00;6.10;98411.00;;;;5005737;28;20485;-82
2021/11/28 00:59:32;;;;;;;14.77;13.37;;;4.20;1.00;6.10;98425.00;;;;4990885;28;20439;-83
2021/11/28 01:02:01;;;;;;;15.50;14.13;;;4.20;1.00;6.10;98423.00;;;;5249299;23;20482;-85
2021/11/28 01:04:31;;;;;;;16.40;14.67;;;4.20;1.00;6.20;98407.00;;;;5039015;28;20432;-84
2021/11/28 01:07:01;;;;;;;16.60;14.90;;;4.20;1.00;6.20;98279.00;;;;5051730;28;20455;-88
2021/11/28 01:09:30;;;;;;;14.83;13.23;;;4.20;1.00;6.10;98422.00;;;;5017373;28;20437;-81
2021/11/28 01:11:59;;;;;;;15.43;14.03;;;4.30;1.00;6.20;98411.00;;;;5004666;28;20462;-80
2021/11/28 01:14:28;;;;;;;19.13;17.10;;;4.30;1.00;6.30;98375.00;;;;5004705;28;20522;-80
2021/11/28 01:16:56;;;;;;;19.10;17.20;;;4.20;1.00;6.00;98436.00;;;;5012209;28;20565;-81
2021/11/28 01:19:25;;;;;;;16.70;15.03;;;4.30;1.00;6.20;98398.00;;;;5019654;28;20435;-82
2021/11/28 01:21:58;;;;;;;16.83;15.20;;;4.30;1.00;6.30;98425.00;;;;5009293;28;20506;-83
2021/11/28 01:24:27;;;;;;;15.90;14.37;;;4.30;1.00;6.30;98427.00;;;;5029806;28;20435;-83
2021/11/28 01:26:56;;;;;;;15.83;13.80;;;4.40;1.00;6.30;98390.00;;;;5026265;28;20474;-81
2021/11/28 01:29:26;;;;;;;13.40;12.20;;;4.40;1.00;5.90;98424.00;;;;5032777;28;20445;-87
2021/11/28 01:31:57;;;;;;;13.00;11.80;;;4.30;1.00;6.30;98380.00;;;;5018419;28;20463;-84
2021/11/28 01:34:26;;;;;;;16.17;12.47;;;4.30;1.00;6.10;98429.00;;;;5004328;28;20472;-84
2021/11/28 01:36:57;;;;;;;11.93;10.83;;;4.30;1.00;5.90;98434.00;;;;5001085;28;20582;-85
2021/11/28 01:39:26;;;;;;;12.40;11.30;;;4.20;1.00;6.00;98351.00;;;;5004965;28;20458;-83
2021/11/28 01:41:55;;;;;;;14.13;11.30;;;4.10;1.00;5.90;98437.00;;;;5003721;28;20469;-82
2021/11/28 01:44:24;;;;;;;13.73;12.30;;;4.10;1.00;5.90;98417.00;;;;5019319;28;21179;-81
2021/11/28 01:46:53;;;;;;;13.07;11.83;;;4.10;1.00;5.60;98380.00;;;;5018335;28;20538;-84
2021/11/28 01:49:22;;;;;;;14.43;12.20;;;4.20;1.00;5.80;98350.00;;;;5021355;28;20440;-84
2021/11/28 01:51:53;;;;;;;13.30;12.00;;;4.10;1.00;5.80;98408.00;;;;4997312;28;20448;-86
2021/11/28 01:54:24;;;;;;;15.40;13.47;;;4.30;1.00;5.80;98436.00;;;;5009699;28;20436;-90
2021/11/28 01:56:53;;;;;;;14.63;12.77;;;4.10;1.00;5.90;98439.00;;;;5036382;28;20477;-82
2021/11/28 01:59:25;;;;;;;15.83;14.13;;;4.10;1.00;6.00;98406.00;;;;5034570;28;20431;-82
2021/11/28 02:01:55;;;;;;;15.80;14.10;;;4.20;1.00;6.00;98408.00;;;;5007194;28;20505;-82
2021/11/28 02:04:25;;;;;;;15.53;13.47;;;4.20;1.00;6.10;98378.00;;;;5005781;28;20446;-83
2021/11/28 02:06:53;;;;;;;16.00;14.37;;;4.20;1.00;6.10;98396.00;;;;5037547;28;21005;-84
2021/11/28 02:09:24;;;;;;;16.27;13.30;;;4.30;1.00;6.10;98420.00;;;;5031110;28;20444;-83
2021/11/28 02:11:52;;;;;;;14.37;12.97;;;4.30;1.00;6.10;98370.00;;;;4999927;28;20486;-83
2021/11/28 02:14:21;;;;;;;15.50;13.90;;;4.40;1.00;6.10;98419.00;;;;5001986;28;20449;-82
2021/11/28 02:16:52;;;;;;;14.73;13.20;;;4.30;1.00;6.10;98424.00;;;;5007045;28;21007;-83
2021/11/28 02:19:21;;;;;;;14.90;13.33;;;4.30;1.00;6.10;98404.00;;;;5010157;28;20469;-83
2021/11/28 02:21:51;;;;;;;14.33;12.93;;;4.20;1.00;6.20;98442.00;;;;5042323;28;20450;-84
2021/11/28 02:24:19;;;;;;;13.73;12.33;;;4.30;1.00;6.10;98309.00;;;;5026969;28;20475;-83
2021/11/28 02:26:48;;;;;;;18.57;13.13;;;4.30;1.00;217.30;159236.00;;;;5013964;28;20481;-81
2021/11/28 02:29:18;;;;;;;14.80;13.20;;;4.30;1.00;6.10;98345.00;;;;5015090;28;20470;-81
2021/11/28 02:31:47;;;;;;;14.13;12.57;;;4.30;1.00;6.20;98402.00;;;;5011409;28;20485;-82
2021/11/28 02:34:17;;;;;;;12.27;11.07;;;4.30;1.00;6.10;98404.00;;;;5013996;28;20983;-82
2021/11/28 02:36:47;;;;;;;12.43;11.20;;;4.30;1.00;6.00;98388.00;;;;5030721;28;21089;-79
2021/11/28 02:39:17;;;;;;;13.10;10.90;;;4.30;1.00;6.20;98400.00;;;;5006150;28;20471;-85
2021/11/28 02:41:48;;;;;;;11.10;9.93;;;4.40;1.00;6.30;98363.00;;;;5021222;28;20435;-83
2021/11/28 02:44:18;;;;;;;10.60;9.50;;;4.40;1.00;6.30;98334.00;;;;5002873;28;20505;-80
2021/11/28 02:46:50;;;;;;;13.07;10.27;;;4.50;1.00;6.40;98402.00;;;;4995315;28;20875;-81
2021/11/28 02:49:19;;;;;;;13.10;11.87;;;4.50;1.00;6.40;98411.00;;;;4982530;28;20456;-81
2021/11/28 02:51:48;;;;;;;14.80;13.30;;;4.50;1.00;6.40;98401.00;;;;5005891;28;20454;-83
2021/11/28 02:54:18;;;;;;;14.80;13.30;;;4.60;1.00;6.40;98412.00;;;;5006767;28;20472;-83
2021/11/28 02:56:48;;;;;;;13.37;12.00;;;4.50;1.00;6.40;98441.00;;;;4980036;28;20482;-83
2021/11/28 02:59:17;;;;;;;13.33;12.07;;;4.50;1.00;6.40;98424.00;;;;5008270;28;20481;-81
2021/11/28 03:01:46;;;;;;;12.63;11.27;;;4.40;1.00;6.40;98424.00;;;;5029301;28;20532;-82
2021/11/28 03:04:38;;;;;;;12.77;11.67;;;4.50;1.00;6.50;98387.00;;;;5001691;28;20451;-84
2021/11/28 03:07:07;;;;;;;12.50;11.17;;;4.50;1.00;6.50;98433.00;;;;5013587;28;20505;-81
2021/11/28 03:09:37;;;;;;;10.90;9.90;;;4.60;1.00;6.50;98436.00;;;;5010787;28;21021;-81
2021/11/28 03:12:07;;;;;;;11.10;10.10;;;4.60;1.00;6.40;98416.00;;;;5027850;28;20545;-82
2021/11/28 03:14:36;;;;;;;10.57;9.57;;;4.50;1.00;6.40;98449.00;;;;5012883;28;20446;-81
2021/11/28 03:17:05;;;;;;;11.37;9.77;;;4.50;1.00;6.40;98412.00;;;;4998106;28;20565;-83
2021/11/28 03:19:34;;;;;;;12.40;11.20;;;4.50;1.00;6.40;98429.00;;;;5002616;28;20499;-82
2021/11/28 03:22:05;;;;;;;12.17;10.97;;;4.50;1.00;6.40;98424.00;;;;5000989;28;20453;-83
2021/11/28 03:24:33;;;;;;;13.77;12.47;;;4.50;1.00;6.50;98440.00;;;;4998336;28;20439;-84
2021/11/28 03:27:04;;;;;;;12.93;11.73;;;4.50;1.00;6.40;98438.00;;;;4998039;28;20477;-83
2021/11/28 03:29:33;;;;;;;13.87;12.57;;;4.40;1.00;5.80;98424.00;;;;4984912;28;20547;-83
2021/11/28 03:32:08;;;;;;;14.17;12.77;;;4.30;1.00;6.40;98439.00;;;;4984397;28;20423;-83
2021/11/28 03:35:11;;;;;;;13.40;12.20;;;4.40;1.00;6.30;98450.00;;;;5000924;28;20462;-85
2021/11/28 03:37:43;;;;;;;12.90;11.47;;;4.40;1.00;6.40;98441.00;;;;5012236;28;20480;-82
2021/11/28 03:40:14;;;;;;;12.63;11.33;;;4.40;1.00;6.40;98351.00;;;;5019522;28;20439;-85
2021/11/28 03:42:43;;;;;;;14.50;13.20;;;4.40;1.00;6.30;98431.00;;;;5020849;28;20454;-82
2021/11/28 03:45:18;;;;;;;12.30;11.10;;;4.30;1.00;6.30;98424.00;;;;5034295;28;20458;-83
2021/11/28 03:47:54;;;;;;;13.50;12.10;;;4.30;1.00;6.20;98430.00;;;;5015220;28;20506;-82
2021/11/28 03:50:22;;;;;;;11.90;10.50;;;4.30;1.00;6.10;98421.00;;;;5011908;28;20439;-84
2021/11/28 03:52:51;;;;;;;12.07;10.77;;;4.30;1.00;6.00;98392.00;;;;5028363;28;20533;-82
2021/11/28 03:55:22;;;;;;;14.73;12.17;;;4.40;1.00;6.00;98413.00;;;;5012352;28;20462;-85
2021/11/28 03:57:52;;;;;;;12.90;11.53;;;4.20;1.00;6.10;98440.00;;;;5004731;28;20481;-85
2021/11/28 04:00:22;;;;;;;12.30;11.07;;;4.30;1.00;5.90;98359.00;;;;5020320;28;20454;-89
2021/11/28 04:02:59;;;;;;;15.27;12.10;;;4.30;1.00;5.90;98410.00;;;;5029221;28;20449;-80
2021/11/28 04:05:30;;;;;;;11.83;10.80;;;4.40;1.00;6.20;98345.00;;;;5031146;28;20501;-85
2021/11/28 04:07:59;;;;;;;8.30;6.67;;;4.40;1.00;5.90;98443.00;;;;5035131;28;20469;-89
2021/11/28 04:10:27;;;;;;;13.60;9.17;;;4.40;1.00;6.00;98442.00;;;;5029779;28;20454;-84
2021/11/28 04:13:03;;;;;;;9.17;8.27;;;4.30;1.00;5.90;98442.00;;;;5031393;28;20454;-83
2021/11/28 04:15:33;;;;;;;12.00;10.80;;;4.30;1.00;6.00;98414.00;;;;5012379;28;20439;-82
2021/11/28 04:18:13;;;;;;;10.77;8.70;;;4.40;1.00;6.00;98423.00;;;;4982156;28;20481;-84
2021/11/28 04:20:42;;;;;;;11.83;10.73;;;4.30;1.00;6.00;98410.00;;;;5001187;28;20983;-82
2021/11/28 04:23:12;;;;;;;14.43;8.43;;;4.30;1.00;6.00;98448.00;;;;5014442;28;20896;-83
2021/11/28 04:25:40;;;;;;;10.43;8.57;;;4.30;1.00;6.00;98442.00;;;;5014166;28;20471;-84
2021/11/28 04:28:11;;;;;;;10.53;8.97;;;4.30;1.00;6.00;98444.00;;;;4999074;28;20483;-84
2021/11/28 04:30:39;;;;;;;10.63;8.83;;;4.30;1.00;6.00;98452.00;;;;4994569;28;20458;-82
2021/11/28 04:33:10;;;;;;;9.50;8.53;;;4.30;1.00;6.00;98397.00;;;;5003781;28;20575;-82
2021/11/28 04:35:43;;;;;;;8.07;7.37;;;4.30;1.00;5.90;98430.00;;;;5019055;28;20473;-83
2021/11/28 04:38:12;;;;;;;9.20;7.67;;;4.30;1.00;5.90;98447.00;;;;4950504;28;20917;-79
2021/11/28 04:40:41;;;;;;;10.83;8.40;;;4.20;1.00;5.90;98422.00;;;;4970573;28;20462;-76
2021/11/28 04:43:11;;;;;;;8.10;7.13;;;4.20;1.00;5.80;98445.00;;;;4980945;28;20506;-78
2021/11/28 04:45:39;;;;;;;11.27;8.10;;;4.20;1.00;5.60;98441.00;;;;4978005;28;20479;-79
2021/11/28 04:48:07;;;;;;;9.77;8.33;;;4.20;1.00;5.60;98441.00;;;;4976454;28;20467;-79
2021/11/28 04:50:40;;;;;;;13.43;8.10;;;4.20;1.00;5.40;98439.00;;;;4976807;28;21079;-78
2021/11/28 04:53:09;;;;;;;9.47;7.73;;;4.10;1.00;5.30;98450.00;;;;4953492;28;20468;-80
2021/11/28 04:55:38;;;;;;;9.53;8.40;;;4.10;1.00;5.30;98412.00;;;;4990491;28;20532;-75
2021/11/28 04:58:06;;;;;;;10.43;9.43;;;4.10;1.00;5.30;98420.00;;;;4998764;28;20440;-74
2021/11/28 05:00:36;;;;;;;11.67;9.43;;;4.20;1.00;5.20;98416.00;;;;4999270;28;20456;-78
2021/11/28 05:03:08;;;;;;;10.27;9.23;;;4.00;1.00;5.20;98433.00;;;;4983100;28;20452;-80
2021/11/28 05:05:57;;;;;;;10.40;8.40;;;4.10;1.00;5.40;98401.00;;;;4971850;28;20554;-79
2021/11/28 05:08:44;;;;;;;12.03;9.50;;;4.00;1.00;5.30;98444.00;;;;4970331;28;20471;-80
2021/11/28 05:11:13;;;;;;;9.97;8.53;;;4.00;1.00;5.40;98402.00;;;;4949604;28;20605;-80
2021/11/28 05:13:41;;;;;;;10.50;9.40;;;4.00;1.00;5.40;98393.00;;;;4977628;28;20455;-79
2021/11/28 05:16:11;;;;;;;11.70;9.73;;;4.00;1.00;5.40;98430.00;;;;4956141;29;20484;-80
2021/11/28 05:18:58;;;;;;;12.67;9.83;;;4.10;1.00;5.30;98443.00;;;;4977883;28;20867;-79
2021/11/28 05:21:38;;;;;;;15.27;11.43;;;4.00;1.00;5.30;98415.00;;;;4974383;28;20472;-80
2021/11/28 05:24:07;;;;;;;13.47;10.20;;;3.90;1.00;5.30;98390.00;;;;4965174;28;20489;-79
2021/11/28 05:26:39;;;;;;;13.03;11.60;;;3.90;1.00;5.30;98433.00;;;;4971319;28;20498;-79
2021/11/28 05:29:08;;;;;;;13.57;11.03;;;3.90;1.00;5.30;98442.00;;;;4957718;28;20794;-77
2021/11/28 05:31:40;;;;;;;11.73;10.53;;;3.90;1.00;5.30;98398.00;;;;4955860;28;20522;-79
2021/11/28 05:34:28;;;;;;;11.70;10.50;;;3.90;1.00;5.20;98428.00;;;;4974557;28;20455;-79
2021/11/28 05:37:15;;;;;;;12.00;10.40;;;4.00;1.00;5.20;98440.00;;;;4958056;29;21007;-78
2021/11/28 05:39:45;;;;;;;11.50;10.40;;;3.90;1.00;5.10;98450.00;;;;4973301;28;20462;-79
2021/11/28 05:42:14;;;;;;;12.40;10.87;;;3.90;1.00;5.10;98446.00;;;;4964982;28;20529;-79
2021/11/28 05:44:43;;;;;;;15.77;11.97;;;3.90;1.00;5.10;98448.00;;;;4953999;28;20455;-78
2021/11/28 05:47:31;;;;;;;12.23;10.73;;;3.80;1.00;5.10;98424.00;;;;4977256;28;20558;-78
2021/11/28 05:50:22;;;;;;;11.70;10.43;;;3.80;1.00;5.10;98415.00;;;;4955443;28;20485;-78
2021/11/28 05:52:52;;;;;;;12.40;11.00;;;3.80;1.00;5.20;98438.00;;;;4963480;28;20456;-79
2021/11/28 05:55:23;;;;;;;12.60;10.00;;;3.90;1.00;5.20;98438.00;;;;4954044;28;20471;-79
2021/11/28 05:57:54;;;;;;;12.30;11.10;;;3.90;1.00;5.20;98451.00;;;;4980631;28;20479;-78
2021/11/28 06:00:27;;;;;;;12.73;10.27;;;3.90;1.00;5.20;98455.00;;;;4961631;28;20447;-78
2021/11/28 06:03:05;;;;;;;12.63;10.67;;;4.00;1.00;5.20;98454.00;;;;4988338;28;20820;-78
2021/11/28 06:05:41;;;;;;;13.03;11.73;;;3.90;1.00;5.10;98447.00;;;;4973212;28;20455;-78
2021/11/28 06:08:16;;;;;;;12.87;10.50;;;3.90;1.00;5.20;98300.00;;;;4962890;28;20462;-78
2021/11/28 06:10:47;;;;;;;13.43;12.03;;;3.90;1.00;5.20;98450.00;;;;4960027;28;20475;-76
2021/11/28 06:13:16;;;;;;;12.60;11.30;;;4.00;1.00;5.10;98442.00;;;;4984724;28;20435;-75
2021/11/28 06:15:50;;;;;;;12.80;11.47;;;3.80;1.00;5.10;98435.00;;;;4973643;28;20482;-75
2021/11/28 06:18:43;;;;;;;13.37;11.60;;;3.90;1.00;5.20;98435.00;;;;4969955;28;20447;-79
2021/11/28 06:21:31;;;;;;;13.10;11.60;;;3.90;1.00;5.20;98424.00;;;;4971984;28;20471;-78
2021/11/28 06:24:23;;;;;;;13.73;11.90;;;3.90;1.00;5.20;98361.00;;;;4959794;28;20451;-78
2021/11/28 06:27:01;;;;;;;12.97;11.67;;;3.90;1.00;5.20;98458.00;;;;4959261;28;20864;-78
2021/11/28 06:29:29;;;;;;;12.53;11.33;;;3.90;1.00;5.20;98449.00;;;;4980965;28;20498;-78
2021/11/28 06:31:57;;;;;;;13.03;11.73;;;3.90;1.00;5.20;98453.00;;;;5001577;28;20455;-78
2021/11/28 06:34:53;;;;;;;12.70;11.40;;;3.90;1.00;5.10;98431.00;;;;4987453;28;20451;-79
2021/11/28 06:37:46;;;;;;;13.00;11.67;;;3.90;1.00;5.20;98451.00;;;;4995231;28;20482;-77
2021/11/28 06:40:33;;;;;;;15.27;12.47;;;3.90;1.00;5.00;98461.00;;;;4983012;28;20471;-77
2021/11/28 06:43:12;;;;;;;13.23;11.77;;;3.90;1.00;5.10;98461.00;;;;4983807;28;20495;-77
2021/11/28 06:45:41;;;;;;;13.83;12.43;;;3.90;1.00;5.20;98466.00;;;;4958786;28;20455;-78
2021/11/28 06:48:10;;;;;;;13.60;11.73;;;3.90;1.00;5.30;98459.00;;;;4956167;28;20526;-75
2021/11/28 06:51:04;;;;;;;13.40;12.10;;;4.00;1.00;5.30;98375.00;;;;4957794;29;21064;-78
2021/11/28 06:53:36;;;;;;;17.60;12.00;;;3.90;1.00;5.30;98450.00;;;;4958118;28;20527;-77
2021/11/28 06:56:36;;;;;;;12.70;11.50;;;3.90;1.00;5.40;98453.00;;;;4972826;28;20499;-77
2021/11/28 06:59:07;;;;;;;12.50;11.33;;;4.00;1.00;5.40;98466.00;;;;4986068;28;20480;-77
2021/11/28 07:01:42;;;;;;;13.77;12.37;;;4.00;1.00;5.20;98457.00;;;;4991185;28;20522;-77
2021/11/28 07:04:46;;;;;;;14.40;12.90;;;3.90;1.00;5.20;98434.00;;;;4991971;28;20447;-75
2021/11/28 07:07:33;;;;;;;12.73;11.47;;;3.90;1.00;5.30;98473.00;;;;4993838;28;20475;-76
2021/11/28 07:10:06;;;;;;;13.10;11.70;;;3.90;1.00;5.40;98472.00;;;;4986520;28;20467;-76
2021/11/28 07:12:35;;;;;;;15.80;12.47;;;3.90;1.00;5.40;98459.00;;;;4980185;28;20463;-77
2021/11/28 07:15:12;;;;;;;13.77;12.37;;;3.90;1.00;5.50;98486.00;;;;4981783;28;20538;-75
2021/11/28 07:17:40;;;;;;;12.90;11.70;;;4.00;1.00;5.60;98490.00;;;;4996375;28;20540;-75
2021/11/28 07:20:30;;;;;;;14.00;12.37;;;4.00;1.00;5.70;98476.00;;;;4980816;28;20440;-78
2021/11/28 07:23:04;;;;;;;14.00;12.70;;;4.10;1.00;5.80;98477.00;;;;4974651;28;20455;-78
2021/11/28 07:25:32;;;;;;;14.90;13.23;;;4.20;1.00;5.80;98488.00;;;;4973716;28;20451;-78
2021/11/28 07:28:18;;;;;;;16.57;14.10;;;4.20;1.00;5.90;98484.00;;;;4996094;28;20444;-77
2021/11/28 07:30:51;;;;;;;15.80;14.17;;;4.20;1.00;5.80;98492.00;;;;4991871;28;20518;-77
2021/11/28 07:33:39;;;;;;;15.73;13.80;;;4.20;1.00;5.80;98502.00;;;;4993463;28;20490;-76
2021/11/28 07:36:36;;;;;;;17.13;15.53;;;4.10;1.00;5.80;98496.00;;;;4988536;28;20526;-77
2021/11/28 07:39:08;;;;;;;15.03;12.93;;;4.10;1.00;5.90;98504.00;;;;4962747;28;20502;-78
2021/11/28 07:41:38;;;;;;;14.97;13.50;;;4.20;1.00;5.90;98485.00;;;;4973560;28;20456;-77
2021/11/28 07:44:25;;;;;;;14.53;13.13;;;4.30;1.00;6.00;98472.00;;;;4997860;28;20494;-76
2021/11/28 07:47:02;;;;;;;14.87;13.57;;;4.30;1.00;6.10;98515.00;;;;4993093;28;20462;-75
2021/11/28 07:49:38;;;;;;;14.73;12.80;;;4.40;1.00;6.20;98513.00;;;;4985376;28;20431;-76
2021/11/28 07:52:19;;;;;;;14.50;12.90;;;4.50;1.00;6.30;98525.00;;;;4983508;28;20466;-75
2021/11/28 07:54:48;;;;;;;14.97;13.57;;;4.40;1.00;6.40;98523.00;;;;4996094;28;20444;-75
2021/11/28 07:57:36;;;;;;;13.70;12.40;;;4.60;1.00;6.40;98488.00;;;;4980356;28;20488;-75
2021/11/28 08:00:24;;;;;;;14.27;12.90;;;4.60;1.00;6.50;98514.00;;;;4984795;28;20486;-75
2021/11/28 08:02:53;;;;;;;13.03;11.73;;;4.60;1.00;6.50;98511.00;;;;4983958;28;20471;-76
2021/11/28 08:05:40;;;;;;;13.83;12.53;;;4.70;1.00;6.60;98525.00;;;;4996719;28;20445;-76
2021/11/28 08:08:28;;;;;;;14.50;13.10;;;4.70;1.00;6.70;98524.00;;;;4963956;28;20460;-79
2021/11/28 08:11:13;;;;;;;12.57;11.40;;;4.70;1.00;6.70;98527.00;;;;4967713;28;20578;-78
2021/11/28 08:13:42;;;;;;;11.70;10.47;;;4.80;1.00;6.70;98525.00;;;;4981009;28;20844;-78
2021/11/28 08:16:11;;;;;;;11.93;9.90;;;4.70;1.00;6.70;98527.00;;;;4976088;28;20490;-79
2021/11/28 08:18:40;;;;;;;11.10;10.00;;;4.70;1.00;6.70;98517.00;;;;4977242;28;20443;-77
2021/11/28 08:21:08;;;;;;;12.00;10.50;;;4.70;1.00;6.60;98522.00;;;;4976260;28;20447;-75
2021/11/28 08:23:37;;;;;;;10.70;9.60;;;4.70;1.00;6.60;98528.00;;;;4956764;28;20488;-78
2021/11/28 08:26:06;;;;;;;10.70;9.60;;;4.80;1.00;6.70;98538.00;;;;4976503;28;20979;-79
2021/11/28 08:28:37;;;;;;;14.20;10.83;;;4.80;1.00;6.70;98426.00;;;;4994790;28;20460;-76
2021/11/28 08:31:06;;;;;;;11.57;10.37;;;4.80;1.00;6.70;98548.00;;;;4999183;28;20467;-76
2021/11/28 08:33:40;;;;;;;13.17;10.47;;;4.80;1.00;6.70;98536.00;;;;4990809;28;20438;-78
2021/11/28 08:36:32;;;;;;;11.00;9.90;;;4.80;1.00;6.80;98509.00;;;;4980114;28;20465;-81
2021/11/28 08:39:02;;;;;;;12.43;11.17;;;4.80;1.00;6.80;98544.00;;;;4978939;29;20436;-78
2021/11/28 08:41:34;;;;;;;11.13;10.13;;;4.80;1.00;6.80;98563.00;;;;4959351;29;20463;-78
2021/11/28 08:44:05;;;;;;;10.63;9.63;;;4.80;1.00;6.80;98527.00;;;;4964287;28;20452;-78
2021/11/28 08:46:34;;;;;;;11.40;10.17;;;4.80;1.00;6.80;98568.00;;;;4975120;28;20476;-78
2021/11/28 08:49:07;;;;;;;10.50;9.50;;;4.90;1.00;6.80;98522.00;;;;4961386;28;20458;-79
2021/11/28 08:51:36;;;;;;;11.43;9.90;;;4.90;1.00;6.90;98566.00;;;;4978047;28;20519;-79
2021/11/28 08:54:06;;;;;;;13.63;10.40;;;4.90;1.00;7.00;98547.00;;;;4964438;28;20455;-79
2021/11/28 08:56:34;;;;;;;12.03;10.03;;;5.00;1.00;7.10;98520.00;;;;4981428;28;20506;-78
2021/11/28 08:59:04;;;;;;;11.03;9.83;;;5.00;1.00;7.10;98556.00;;;;4965104;28;20510;-79
2021/11/28 09:01:32;;;;;;;11.07;9.47;;;5.10;1.00;7.20;98568.00;;;;4971816;28;20484;-79
2021/11/28 09:04:01;;;;;;;10.00;9.07;;;5.20;1.00;7.30;98561.00;;;;4990768;28;20480;-77
2021/11/28 09:06:30;;;;;;;13.20;9.40;;;5.20;1.00;7.40;98568.00;;;;4991891;28;20475;-78
2021/11/28 09:08:59;;;;;;;11.70;10.20;;;5.30;1.00;7.40;98563.00;;;;4978325;28;20511;-78
2021/11/28 09:11:30;;;;;;;10.70;9.60;;;5.40;1.00;7.50;98547.00;;;;4975052;28;21038;-78
2021/11/28 09:13:59;;;;;;;12.00;10.07;;;5.40;1.00;7.60;98566.00;;;;4975007;28;20470;-78
2021/11/28 09:16:32;;;;;;;12.83;10.67;;;5.40;1.00;7.60;98568.00;;;;4956049;28;20490;-77
2021/11/28 09:19:03;;;;;;;10.70;9.70;;;5.40;1.00;7.60;98550.00;;;;4961644;28;20491;-79
2021/11/28 09:21:32;;;;;;;10.90;9.70;;;5.70;1.00;7.70;98549.00;;;;4974466;28;20464;-77
2021/11/28 09:26:49;;;;;;;11.03;9.77;;;5.60;1.00;7.80;98567.00;;;;4972047;28;20506;-79
2021/11/28 09:29:19;;;;;;;11.60;10.37;;;5.70;1.00;7.70;98511.00;;;;4976481;28;20455;-78
2021/11/28 09:31:49;;;;;;;11.10;9.50;;;5.70;1.00;7.70;98574.00;;;;4944950;29;20481;-77
2021/11/28 09:34:19;;;;;;;11.60;9.80;;;5.70;1.00;7.70;98553.00;;;;4969696;28;20494;-76
2021/11/28 09:36:47;;;;;;;10.40;9.27;;;5.60;1.00;7.60;98571.00;;;;4957523;28;20533;-78
2021/11/28 09:39:16;;;;;;;11.20;10.00;;;5.50;1.00;7.50;98558.00;;;;4973293;28;20463;-75
2021/11/28 09:42:03;;;;;;;11.47;10.33;;;5.50;1.00;7.50;98568.00;;;;4954028;29;20464;-77
2021/11/28 09:44:35;;;;;;;10.67;9.57;;;5.40;1.00;7.40;98569.00;;;;4954182;28;20966;-77
2021/11/28 09:47:10;;;;;;;11.77;10.57;;;5.40;1.00;7.20;98553.00;;;;4970562;28;20479;-77
2021/11/28 09:49:41;;;;;;;11.93;10.73;;;5.30;1.00;7.10;98564.00;;;;4972328;28;20474;-78
2021/11/28 09:52:13;;;;;;;11.47;10.33;;;5.30;1.00;7.10;98562.00;;;;4957342;28;20483;-80
2021/11/28 09:54:44;;;;;;;11.10;10.10;;;5.30;1.00;7.10;98559.00;;;;4974329;28;20421;-77
2021/11/28 09:57:15;;;;;;;14.37;11.37;;;5.30;1.00;7.00;98558.00;;;;4969272;28;21011;-75
2021/11/28 09:59:50;;;;;;;12.27;9.97;;;5.30;1.00;6.90;98564.00;;;;4974229;28;20432;-79
2021/11/28 10:02:24;;;;;;;12.50;11.10;;;5.20;1.00;6.80;98559.00;;;;4968624;28;20487;-76
2021/11/28 10:04:55;;;;;;;15.47;13.90;;;5.20;1.00;6.80;98577.00;;;;4972724;28;20455;-80
2021/11/28 10:07:25;;;;;;;12.73;10.50;;;5.10;1.00;6.90;98561.00;;;;4958374;28;21043;-78
2021/11/28 10:09:54;;;;;;;12.97;11.77;;;5.10;1.00;6.90;98565.00;;;;4973780;28;20471;-76
2021/11/28 10:12:28;;;;;;;12.80;11.57;;;5.20;1.00;7.00;98541.00;;;;4952749;28;20571;-77
2021/11/28 10:14:59;;;;;;;14.00;11.47;;;5.20;1.00;7.00;98553.00;;;;4972465;28;20491;-79
2021/11/28 10:17:33;;;;;;;15.00;11.50;;;5.20;1.00;7.00;98471.00;;;;4971299;28;20502;-79
2021/11/28 10:20:06;;;;;;;14.63;13.13;;;5.30;1.00;7.30;98540.00;;;;4974321;28;20486;-78
2021/11/28 10:22:34;;;;;;;11.33;10.23;;;5.50;1.00;7.40;98510.00;;;;4975820;28;20471;-80
2021/11/28 10:25:10;;;;;;;12.03;10.90;;;5.50;1.00;7.30;98548.00;;;;4978905;28;20460;-77
2021/11/28 10:27:42;;;;;;;12.53;10.80;;;5.60;1.00;7.10;98558.00;;;;4983687;28;20517;-76
2021/11/28 10:30:15;;;;;;;11.83;10.70;;;5.60;1.00;7.20;98526.00;;;;4981572;28;20565;-78
2021/11/28 10:32:50;;;;;;;13.30;11.43;;;5.50;1.00;7.20;98537.00;;;;4966793;28;20551;-79
2021/11/28 10:35:19;;;;;;;12.23;11.13;;;5.60;1.00;7.20;98538.00;;;;4972458;28;20444;-78
2021/11/28 10:37:51;;;;;;;11.53;10.43;;;5.60;1.00;7.20;98554.00;;;;5063980;22;20586;-83
2021/11/28 10:40:23;;;;;;;11.93;10.20;;;5.50;1.00;7.20;98563.00;;;;4995266;28;20447;-83
2021/11/28 10:43:08;;;;;;;12.20;11.10;;;5.50;1.00;7.30;98505.00;;;;4991423;28;20489;-85
2021/11/28 10:45:39;;;;;;;12.37;11.00;;;5.50;1.00;7.20;98515.00;;;;4991571;28;20459;-86
2021/11/28 10:48:12;;;;;;;11.33;10.23;;;5.50;1.00;7.30;98502.00;;;;4981785;28;20508;-86
2021/11/28 10:50:42;;;;;;;12.20;11.03;;;5.60;1.00;7.40;98552.00;;;;5000671;28;20463;-84
2021/11/28 10:53:16;;;;;;;13.50;12.10;;;5.70;1.00;7.50;98522.00;;;;4998705;28;20471;-87
2021/11/28 10:55:49;;;;;;;12.43;11.37;;;5.70;1.00;7.50;98489.00;;;;5001793;28;20523;-86
2021/11/28 10:58:20;;;;;;;11.23;10.13;;;5.80;1.00;7.50;98527.00;;;;4983924;28;20506;-85
2021/11/28 11:01:15;;;;;;;12.00;10.90;;;5.80;1.00;7.40;98527.00;;;;4982108;28;20463;-86
2021/11/28 11:03:48;;;;;;;11.47;10.10;;;5.90;1.00;7.10;98492.00;;;;4965422;28;20469;-86
2021/11/28 11:06:20;;;;;;;10.57;9.47;;;5.70;1.00;7.00;98478.00;;;;4975303;28;20463;-85
2021/11/28 11:08:54;;;;;;;10.00;9.10;;;5.60;1.00;7.00;98459.00;;;;4980329;28;20464;-87
2021/11/28 11:11:24;;;;;;;12.10;10.90;;;5.50;1.00;6.60;98436.00;;;;4987590;28;20451;-85
2021/11/28 11:13:56;;;;;;;11.73;10.53;;;5.50;1.00;7.00;98538.00;;;;4987490;28;20464;-85
2021/11/28 11:16:33;;;;;;;13.33;12.03;;;5.60;1.00;7.10;98530.00;;;;4986167;28;20441;-84
2021/11/28 11:19:32;;;;;;;14.60;11.27;;;5.70;1.00;7.20;98433.00;;;;4971485;28;20479;-84
2021/11/28 11:22:06;;;;;;;11.93;10.83;;;5.70;1.00;7.40;98313.00;;;;5005037;28;20479;-88
2021/11/28 11:24:38;;;;;;;12.30;11.20;;;5.70;1.00;7.50;98528.00;;;;4981599;28;20554;-87
2021/11/28 11:27:12;;;;;;;14.00;11.97;;;5.90;1.00;7.10;98470.00;;;;4983504;28;20514;-88
2021/11/28 11:29:47;;;;;;;9.90;9.00;;;5.90;1.00;7.60;98392.00;;;;5000477;28;20474;-86
2021/11/28 11:32:20;;;;;;;10.23;9.20;;;6.10;1.00;7.30;98524.00;;;;4997898;28;20557;-86
2021/11/28 11:34:55;;;;;;;11.50;10.30;;;6.10;1.00;7.80;98512.00;;;;4976375;29;20472;-88
2021/11/28 11:37:27;;;;;;;10.70;9.60;;;6.20;1.00;7.70;98468.00;;;;4978391;29;20554;-87